createdAt,value
2022-08-16T00:00:38.671Z,21.17
2022-08-16T00:03:13.605Z,21.20
2022-08-16T00:05:48.486Z,21.22
2022-08-16T00:08:35.919Z,21.23
2022-08-16T00:11:08.601Z,21.24
2022-08-16T00:13:53.877Z,21.25
2022-08-16T00:17:00.515Z,21.23
2022-08-16T00:19:19.544Z,21.23
2022-08-16T00:21:56.064Z,21.20
2022-08-16T00:24:32.544Z,21.14
2022-08-16T00:27:04.576Z,21.07
2022-08-16T00:29:33.496Z,21.05
2022-08-16T00:32:06.898Z,21.04
2022-08-16T00:34:45.225Z,21.01
2022-08-16T00:37:57.783Z,20.98
2022-08-16T00:40:34.467Z,20.94
2022-08-16T00:43:12.178Z,20.95
2022-08-16T00:45:58.539Z,20.95
2022-08-16T00:48:43.718Z,20.95
2022-08-16T00:51:15.997Z,20.97
2022-08-16T00:53:48.132Z,20.99
2022-08-16T00:56:57.131Z,21.00
2022-08-16T00:59:29.480Z,20.99
2022-08-16T01:02:30.525Z,20.96
2022-08-16T01:05:11.333Z,20.87
2022-08-16T01:07:52.187Z,20.82
2022-08-16T01:10:31.334Z,20.76
2022-08-16T01:13:08.235Z,20.73
2022-08-16T01:15:48.355Z,20.74
2022-08-16T01:18:39.097Z,20.75
2022-08-16T01:21:08.570Z,20.76
2022-08-16T01:24:02.303Z,20.75
2022-08-16T01:26:35.569Z,20.71
2022-08-16T01:29:11.206Z,20.67
2022-08-16T01:31:42.822Z,20.65
2022-08-16T01:34:22.718Z,20.65
2022-08-16T01:37:00.026Z,20.66
2022-08-16T01:39:35.554Z,20.66
2022-08-16T01:42:13.066Z,20.62
2022-08-16T01:44:43.482Z,20.57
2022-08-16T01:47:13.685Z,20.53
2022-08-16T01:50:42.937Z,20.49
2022-08-16T01:52:37.900Z,20.48
2022-08-16T01:55:19.197Z,20.46
2022-08-16T01:57:53.362Z,20.45
2022-08-16T02:00:29.338Z,20.43
2022-08-16T02:03:00.173Z,20.41
2022-08-16T02:05:30.548Z,20.39
2022-08-16T02:08:02.789Z,20.36
2022-08-16T02:10:54.997Z,20.36
2022-08-16T02:13:27.704Z,20.35
2022-08-16T02:15:57.538Z,20.34
2022-08-16T02:18:26.715Z,20.32
2022-08-16T02:20:55.561Z,20.32
2022-08-16T02:23:24.582Z,20.33
2022-08-16T02:25:54.653Z,20.34
2022-08-16T02:28:25.639Z,20.33
2022-08-16T02:30:58.438Z,20.33
2022-08-16T02:33:42.779Z,20.33
2022-08-16T02:36:47.335Z,20.31
2022-08-16T02:39:15.193Z,20.28
2022-08-16T02:41:53.160Z,20.27
2022-08-16T02:44:27.057Z,20.27
2022-08-16T02:46:57.747Z,20.25
2022-08-16T02:49:58.647Z,20.23
2022-08-16T02:52:29.488Z,20.19
2022-08-16T02:55:05.209Z,20.17
2022-08-16T02:57:34.987Z,20.16
2022-08-16T03:00:34.695Z,20.14
2022-08-16T03:02:59.711Z,20.14
2022-08-16T03:05:30.946Z,20.13
2022-08-16T03:08:01.791Z,20.15
2022-08-16T03:10:33.390Z,20.14
2022-08-16T03:13:12.132Z,20.15
2022-08-16T03:15:42.869Z,20.15
2022-08-16T03:18:34.824Z,20.15
2022-08-16T03:21:02.226Z,20.14
2022-08-16T03:23:35.818Z,20.11
2022-08-16T03:26:05.237Z,20.10
2022-08-16T03:28:34.340Z,20.10
2022-08-16T03:31:03.290Z,20.08
2022-08-16T03:33:33.206Z,20.06
2022-08-16T03:36:29.924Z,20.07
2022-08-16T03:38:58.237Z,20.06
2022-08-16T03:41:29.610Z,20.06
2022-08-16T03:44:44.269Z,20.07
2022-08-16T03:47:10.269Z,20.05
2022-08-16T03:49:39.425Z,20.02
2022-08-16T03:52:09.931Z,20.01
2022-08-16T03:54:38.424Z,19.98
2022-08-16T03:57:22.828Z,19.94
2022-08-16T03:59:51.837Z,19.90
2022-08-16T04:02:22.498Z,19.87
2022-08-16T04:05:00.761Z,19.87
2022-08-16T04:07:33.454Z,19.86
2022-08-16T04:10:36.225Z,19.87
2022-08-16T04:13:00.613Z,19.89
2022-08-16T04:15:35.121Z,19.93
2022-08-16T04:18:13.893Z,19.97
2022-08-16T04:20:44.801Z,19.99
2022-08-16T04:23:16.449Z,20.04
2022-08-16T04:25:46.989Z,20.11
2022-08-16T04:28:51.688Z,20.16
2022-08-16T04:31:07.315Z,20.23
2022-08-16T04:33:51.293Z,20.25
2022-08-16T04:36:23.163Z,20.28
2022-08-16T04:38:53.158Z,20.30
2022-08-16T04:41:32.305Z,20.37
2022-08-16T04:44:02.386Z,20.56
2022-08-16T04:47:02.639Z,20.65
2022-08-16T04:49:38.711Z,20.71
2022-08-16T04:52:35.104Z,20.76
2022-08-16T04:55:12.176Z,20.81
2022-08-16T04:57:42.326Z,20.86
2022-08-16T05:00:31.089Z,20.91
2022-08-16T05:03:10.648Z,20.99
2022-08-16T05:06:04.835Z,21.10
2022-08-16T05:08:35.028Z,21.87
2022-08-16T05:11:09.957Z,23.29
2022-08-16T05:13:43.869Z,24.41
2022-08-16T05:16:25.003Z,25.37
2022-08-16T05:19:02.949Z,26.45
2022-08-16T05:21:38.006Z,27.44
2022-08-16T05:24:09.848Z,28.28
2022-08-16T05:26:43.466Z,28.67
2022-08-16T05:29:21.275Z,27.94
2022-08-16T05:32:02.345Z,27.10
2022-08-16T05:34:31.525Z,26.46
2022-08-16T05:37:00.979Z,25.83
2022-08-16T05:39:40.678Z,25.31
2022-08-16T05:42:09.920Z,24.90
2022-08-16T05:44:40.445Z,24.93
2022-08-16T05:47:15.110Z,25.64
2022-08-16T05:49:44.637Z,26.76
2022-08-16T05:52:20.830Z,27.94
2022-08-16T05:55:01.279Z,28.96
2022-08-16T05:57:35.589Z,29.88
2022-08-16T06:00:12.014Z,30.61
2022-08-16T06:02:46.894Z,31.37
2022-08-16T06:05:41.587Z,32.02
2022-08-16T06:08:11.309Z,32.47
2022-08-16T06:11:09.598Z,32.96
2022-08-16T06:13:42.279Z,33.35
2022-08-16T06:16:18.078Z,33.67
2022-08-16T06:18:51.451Z,34.13
2022-08-16T06:21:22.596Z,34.51
2022-08-16T06:23:54.746Z,34.91
2022-08-16T06:26:24.463Z,35.20
2022-08-16T06:29:07.842Z,35.38
2022-08-16T06:31:46.561Z,35.57
2022-08-16T06:34:53.170Z,35.78
2022-08-16T06:37:07.664Z,36.04
2022-08-16T06:39:49.783Z,36.27
2022-08-16T06:42:55.337Z,36.52
2022-08-16T06:45:43.335Z,36.43
2022-08-16T06:48:32.974Z,36.48
2022-08-16T06:51:09.121Z,36.61
2022-08-16T06:53:39.269Z,36.78
2022-08-16T06:56:14.206Z,37.00
2022-08-16T06:58:59.923Z,37.23
2022-08-16T07:01:45.151Z,37.30
2022-08-16T07:04:32.395Z,37.24
2022-08-16T07:07:06.174Z,37.11
2022-08-16T07:09:39.395Z,37.06
2022-08-16T07:12:09.266Z,37.14
2022-08-16T07:14:43.029Z,37.23
2022-08-16T07:17:13.264Z,37.24
2022-08-16T07:20:29.825Z,37.15
2022-08-16T07:22:52.367Z,37.01
2022-08-16T07:25:31.316Z,37.28
2022-08-16T07:28:02.377Z,37.37
2022-08-16T07:30:39.101Z,37.48
2022-08-16T07:33:55.727Z,37.75
2022-08-16T07:36:57.927Z,37.81
2022-08-16T07:39:43.481Z,37.52
2022-08-16T07:42:35.337Z,37.35
2022-08-16T07:45:43.051Z,37.28
2022-08-16T07:48:21.608Z,36.95
2022-08-16T07:50:59.591Z,37.07
2022-08-16T07:53:31.744Z,37.33
2022-08-16T07:56:01.271Z,37.31
2022-08-16T07:58:37.962Z,37.10
2022-08-16T08:01:12.864Z,36.69
2022-08-16T08:03:52.893Z,36.61
2022-08-16T08:06:29.048Z,36.62
2022-08-16T08:09:01.900Z,36.81
2022-08-16T08:11:31.378Z,37.00
2022-08-16T08:14:06.810Z,36.90
2022-08-16T08:16:45.428Z,36.93
2022-08-16T08:19:22.987Z,37.01
2022-08-16T08:22:00.527Z,36.82
2022-08-16T08:24:50.672Z,36.45
2022-08-16T08:27:23.638Z,36.13
2022-08-16T08:30:50.166Z,35.60
2022-08-16T08:32:57.292Z,35.61
2022-08-16T08:35:29.408Z,35.76
2022-08-16T08:38:00.210Z,35.50
2022-08-16T08:40:32.507Z,35.17
2022-08-16T08:43:12.343Z,34.97
2022-08-16T08:45:58.062Z,34.50
2022-08-16T08:48:33.977Z,33.90
2022-08-16T08:51:10.361Z,33.54
2022-08-16T08:53:57.625Z,33.23
2022-08-16T08:56:32.558Z,33.01
2022-08-16T08:59:42.489Z,32.57
2022-08-16T09:02:19.552Z,32.15
2022-08-16T09:04:53.294Z,32.04
2022-08-16T09:07:25.899Z,31.81
2022-08-16T09:10:06.144Z,31.65
2022-08-16T09:12:38.627Z,31.45
2022-08-16T09:15:13.903Z,31.44
2022-08-16T09:17:51.409Z,31.51
2022-08-16T09:20:26.192Z,31.44
2022-08-16T09:22:56.872Z,31.42
2022-08-16T09:25:33.746Z,31.78
2022-08-16T09:28:09.258Z,32.17
2022-08-16T09:30:47.398Z,32.38
2022-08-16T09:33:19.932Z,32.58
2022-08-16T09:35:53.337Z,32.61
2022-08-16T09:38:31.803Z,32.73
2022-08-16T09:41:04.928Z,32.79
2022-08-16T09:43:58.689Z,32.94
2022-08-16T09:46:44.738Z,33.25
2022-08-16T09:49:14.450Z,33.15
2022-08-16T09:51:44.263Z,33.35
2022-08-16T09:54:16.682Z,33.57
2022-08-16T09:56:52.319Z,33.72
2022-08-16T09:59:25.208Z,33.58
2022-08-16T10:01:55.093Z,33.24
2022-08-16T10:04:29.779Z,32.86
2022-08-16T10:07:14.715Z,32.59
2022-08-16T10:09:55.833Z,32.48
2022-08-16T10:12:46.781Z,32.64
2022-08-16T10:15:30.248Z,32.58
2022-08-16T10:18:02.518Z,32.28
2022-08-16T10:20:50.190Z,32.00
2022-08-16T10:23:19.467Z,31.85
2022-08-16T10:27:19.263Z,31.79
2022-08-16T10:28:40.282Z,31.65
2022-08-16T10:31:16.953Z,31.59
2022-08-16T10:34:01.955Z,31.37
2022-08-16T10:36:39.225Z,31.15
2022-08-16T10:39:09.218Z,31.04
2022-08-16T10:41:37.874Z,31.01
2022-08-16T10:44:09.669Z,30.87
2022-08-16T10:46:42.226Z,30.90
2022-08-16T10:49:12.542Z,30.85
2022-08-16T10:52:02.977Z,30.90
2022-08-16T10:54:58.370Z,30.80
2022-08-16T10:57:25.002Z,30.72
2022-08-16T11:00:04.791Z,30.73
2022-08-16T11:02:59.863Z,30.58
2022-08-16T11:05:23.374Z,30.32
2022-08-16T11:07:53.942Z,30.25
2022-08-16T11:19:12.284Z,30.16
2022-08-16T11:24:42.039Z,30.13
2022-08-16T11:27:19.401Z,30.07
2022-08-16T11:29:55.579Z,29.98
2022-08-16T11:32:31.986Z,29.93
2022-08-16T11:35:14.082Z,29.98
2022-08-16T11:38:47.162Z,30.05
2022-08-16T11:41:03.928Z,30.06
2022-08-16T11:43:38.806Z,29.94
2022-08-16T11:46:43.196Z,29.96
2022-08-16T11:49:01.885Z,29.98
2022-08-16T11:51:30.640Z,30.01
2022-08-16T11:53:59.278Z,29.90
2022-08-16T11:56:51.658Z,29.76
2022-08-16T11:59:19.628Z,29.55
2022-08-16T12:01:59.425Z,29.42
2022-08-16T12:04:30.140Z,29.44
2022-08-16T12:06:59.814Z,29.47
2022-08-16T12:09:30.971Z,29.50
2022-08-16T12:12:02.963Z,29.53
2022-08-16T12:14:35.479Z,29.53
2022-08-16T12:17:08.147Z,29.50
2022-08-16T12:19:38.736Z,29.52
2022-08-16T12:22:18.907Z,29.49
2022-08-16T12:24:52.018Z,29.46
2022-08-16T12:27:24.422Z,29.44
2022-08-16T12:29:54.805Z,29.43
2022-08-16T12:32:39.376Z,29.37
2022-08-16T12:35:14.897Z,29.40
2022-08-16T12:37:47.215Z,29.40
2022-08-16T12:40:24.799Z,29.49
2022-08-16T12:43:02.719Z,29.55
2022-08-16T12:45:35.668Z,29.65
2022-08-16T12:48:34.145Z,29.76
2022-08-16T12:51:20.029Z,29.85
2022-08-16T12:53:56.235Z,29.91
2022-08-16T12:56:29.741Z,29.83
2022-08-16T12:58:59.522Z,29.83
2022-08-16T13:01:33.973Z,29.87
2022-08-16T13:04:21.012Z,29.93
2022-08-16T13:06:52.566Z,29.95
2022-08-16T13:09:28.967Z,29.96
2022-08-16T13:12:16.277Z,29.98
2022-08-16T13:14:46.510Z,30.01
2022-08-16T13:17:21.067Z,30.03
2022-08-16T13:20:09.456Z,30.02
2022-08-16T13:22:47.624Z,30.02
2022-08-16T13:25:20.961Z,30.07
2022-08-16T13:28:02.368Z,30.10
2022-08-16T13:30:56.702Z,30.12
2022-08-16T13:33:30.839Z,30.07
2022-08-16T13:36:01.214Z,30.05
2022-08-16T13:38:37.650Z,30.04
2022-08-16T13:41:10.191Z,30.07
2022-08-16T13:43:40.329Z,30.03
2022-08-16T13:46:09.137Z,29.99
2022-08-16T13:48:44.440Z,29.99
2022-08-16T13:51:20.130Z,30.03
2022-08-16T13:53:59.703Z,30.05
2022-08-16T13:56:38.042Z,30.04
2022-08-16T13:59:19.571Z,30.03
2022-08-16T14:01:54.435Z,29.97
2022-08-16T14:04:28.071Z,29.91
2022-08-16T14:06:59.564Z,29.91
2022-08-16T14:09:30.665Z,29.92
2022-08-16T14:12:04.427Z,29.92
2022-08-16T14:14:38.830Z,29.93
2022-08-16T14:17:09.713Z,29.94
2022-08-16T14:19:44.861Z,29.94
2022-08-16T14:22:31.203Z,29.94
2022-08-16T14:25:07.228Z,29.82
2022-08-16T14:27:42.192Z,29.79
2022-08-16T14:30:15.311Z,29.80
2022-08-16T14:32:46.606Z,29.79
2022-08-16T14:35:36.704Z,29.77
2022-08-16T14:38:18.621Z,29.69
2022-08-16T14:40:54.786Z,29.64
2022-08-16T14:43:29.698Z,29.59
2022-08-16T14:46:11.068Z,29.55
2022-08-16T14:48:40.193Z,29.57
2022-08-16T14:51:08.934Z,29.56
2022-08-16T14:53:38.582Z,29.56
2022-08-16T14:56:17.344Z,29.56
2022-08-16T14:59:02.874Z,29.58
2022-08-16T15:01:57.623Z,29.61
2022-08-16T15:04:39.849Z,29.62
2022-08-16T15:07:12.839Z,29.63
2022-08-16T15:10:00.463Z,29.62
2022-08-16T15:12:33.615Z,29.64
2022-08-16T15:15:12.297Z,29.64
2022-08-16T15:17:54.516Z,29.66
2022-08-16T15:20:29.457Z,29.67
2022-08-16T15:23:01.967Z,29.68
2022-08-16T15:25:41.386Z,29.68
2022-08-16T15:28:24.042Z,29.66
2022-08-16T15:31:03.016Z,29.65
2022-08-16T15:33:38.949Z,29.63
2022-08-16T15:36:18.408Z,29.60
2022-08-16T15:39:02.271Z,29.57
2022-08-16T15:41:43.162Z,29.52
2022-08-16T15:44:22.445Z,29.49
2022-08-16T15:46:54.639Z,29.48
2022-08-16T15:49:32.907Z,29.45
2022-08-16T15:52:15.050Z,29.44
2022-08-16T15:54:53.372Z,29.43
2022-08-16T15:57:25.023Z,29.40
2022-08-16T15:59:56.478Z,29.39
2022-08-16T16:02:41.047Z,29.38
2022-08-16T16:05:10.851Z,29.35
2022-08-16T16:07:45.121Z,29.32
2022-08-16T16:10:29.723Z,29.31
2022-08-16T16:13:02.069Z,29.28
2022-08-16T16:15:36.011Z,29.25
2022-08-16T16:18:09.923Z,29.22
2022-08-16T16:20:47.896Z,29.20
2022-08-16T16:23:23.561Z,29.18
2022-08-16T16:25:54.201Z,29.16
2022-08-16T16:29:05.394Z,29.13
2022-08-16T16:31:17.272Z,29.12
2022-08-16T16:33:50.242Z,29.09
2022-08-16T16:36:25.470Z,29.05
2022-08-16T16:38:57.655Z,29.02
2022-08-16T16:41:28.681Z,28.99
2022-08-16T16:44:01.568Z,28.96
2022-08-16T16:46:42.606Z,28.95
2022-08-16T16:49:14.502Z,28.93
2022-08-16T16:51:49.832Z,28.89
2022-08-16T16:54:27.437Z,28.86
2022-08-16T16:56:58.679Z,28.82
2022-08-16T16:59:28.718Z,28.78
2022-08-16T17:02:41.332Z,28.75
2022-08-16T17:05:15.802Z,28.71
2022-08-16T17:08:10.072Z,28.67
2022-08-16T17:11:14.933Z,28.63
2022-08-16T17:14:33.069Z,28.55
2022-08-16T17:17:22.791Z,28.46
2022-08-16T17:20:22.692Z,28.37
2022-08-16T17:23:12.531Z,28.30
2022-08-16T17:26:10.373Z,28.23
2022-08-16T17:29:11.238Z,28.17
2022-08-16T17:32:47.412Z,28.13
2022-08-16T17:35:20.623Z,28.07
2022-08-16T17:38:38.900Z,28.02
2022-08-16T17:41:21.867Z,27.96
2022-08-16T17:43:50.653Z,27.91
2022-08-16T17:46:41.317Z,27.86
2022-08-16T17:49:10.157Z,27.80
2022-08-16T17:51:38.795Z,27.75
2022-08-16T17:54:07.595Z,27.70
2022-08-16T17:56:48.473Z,27.65
2022-08-16T17:59:17.272Z,27.59
2022-08-16T18:01:46.641Z,27.54
2022-08-16T18:04:48.666Z,27.48
2022-08-16T18:07:05.816Z,27.41
2022-08-16T18:09:34.959Z,27.33
2022-08-16T18:12:44.516Z,27.20
2022-08-16T18:15:06.924Z,27.08
2022-08-16T18:17:35.857Z,27.00
2022-08-16T18:20:33.097Z,26.93
2022-08-16T18:23:12.305Z,26.84
2022-08-16T18:25:50.784Z,26.76
2022-08-16T18:28:20.213Z,26.68
2022-08-16T18:30:52.048Z,26.62
2022-08-16T18:33:24.463Z,26.55
2022-08-16T18:35:57.576Z,26.49
2022-08-16T18:38:27.153Z,26.44
2022-08-16T18:40:56.148Z,26.40
2022-08-16T18:44:23.685Z,26.37
2022-08-16T18:46:16.929Z,26.29
2022-08-16T18:48:45.852Z,26.22
2022-08-16T18:51:20.276Z,26.14
2022-08-16T18:53:53.774Z,26.04
2022-08-16T18:56:22.431Z,25.96
2022-08-16T18:58:51.333Z,25.92
2022-08-16T19:01:20.333Z,25.85
2022-08-16T19:03:48.890Z,25.79
2022-08-16T19:06:17.759Z,25.75
2022-08-16T19:08:46.533Z,25.71
2022-08-16T19:11:22.036Z,25.67
2022-08-16T19:13:50.812Z,25.63
2022-08-16T19:16:21.803Z,25.61
2022-08-16T19:18:50.630Z,25.58
2022-08-16T19:21:19.669Z,25.55
2022-08-16T19:23:48.804Z,25.51
2022-08-16T19:26:25.575Z,25.47
2022-08-16T19:28:58.758Z,25.46
2022-08-16T19:31:33.116Z,25.45
2022-08-16T19:34:04.242Z,25.41
2022-08-16T19:36:37.404Z,25.36
2022-08-16T19:39:14.075Z,25.33
2022-08-16T19:41:53.766Z,25.29
2022-08-16T19:44:23.434Z,25.27
2022-08-16T19:46:52.187Z,25.26
2022-08-16T19:49:20.705Z,25.27
2022-08-16T19:51:49.711Z,25.27
2022-08-16T19:54:19.071Z,25.23
2022-08-16T19:56:47.569Z,25.17
2022-08-16T19:59:19.436Z,25.11
2022-08-16T20:01:52.908Z,25.08
2022-08-16T20:04:22.998Z,25.05
2022-08-16T20:06:53.765Z,25.03
2022-08-16T20:09:23.580Z,25.00
2022-08-16T20:11:53.866Z,24.96
2022-08-16T20:14:25.204Z,24.91
2022-08-16T20:16:57.519Z,24.87
2022-08-16T20:19:28.390Z,24.86
2022-08-16T20:22:01.870Z,24.83
2022-08-16T20:24:35.046Z,24.80
2022-08-16T20:27:07.861Z,24.78
2022-08-16T20:29:38.601Z,24.74
2022-08-16T20:32:10.071Z,24.71
2022-08-16T20:34:42.017Z,24.70
2022-08-16T20:37:13.354Z,24.70
2022-08-16T20:39:46.747Z,24.67
2022-08-16T20:42:18.410Z,24.65
2022-08-16T20:44:48.822Z,24.63
2022-08-16T20:47:17.347Z,24.62
2022-08-16T20:49:46.343Z,24.58
2022-08-16T20:52:19.976Z,24.53
2022-08-16T20:54:49.098Z,24.49
2022-08-16T20:57:18.131Z,24.45
2022-08-16T20:59:50.188Z,24.42
2022-08-16T21:02:25.831Z,24.40
2022-08-16T21:04:55.508Z,24.37
2022-08-16T21:07:24.705Z,24.35
2022-08-16T21:09:53.260Z,24.35
2022-08-16T21:12:22.191Z,24.34
2022-08-16T21:14:51.165Z,24.32
2022-08-16T21:17:19.872Z,24.28
2022-08-16T21:19:48.659Z,24.22
2022-08-16T21:22:21.907Z,24.20
2022-08-16T21:24:53.880Z,24.16
2022-08-16T21:27:24.416Z,24.08
2022-08-16T21:29:54.695Z,23.98
2022-08-16T21:32:34.934Z,23.94
2022-08-16T21:35:07.482Z,23.91
2022-08-16T21:37:36.397Z,23.90
2022-08-16T21:40:08.401Z,23.89
2022-08-16T21:42:38.195Z,23.88
2022-08-16T21:45:14.421Z,23.88
2022-08-16T21:47:44.277Z,23.88
2022-08-16T21:50:14.512Z,23.89
2022-08-16T21:52:43.364Z,23.87
2022-08-16T21:55:12.544Z,23.85
2022-08-16T21:57:41.396Z,23.84
2022-08-16T22:00:15.247Z,23.81
2022-08-16T22:02:49.115Z,23.76
2022-08-16T22:05:19.959Z,23.72
2022-08-16T22:07:49.019Z,23.69
2022-08-16T22:11:05.151Z,23.66
2022-08-16T22:13:17.092Z,23.66
2022-08-16T22:15:46.712Z,23.65
2022-08-16T22:18:17.571Z,23.64
2022-08-16T22:20:47.787Z,23.63
2022-08-16T22:23:18.788Z,23.62
2022-08-16T22:25:48.432Z,23.58
2022-08-16T22:28:18.505Z,23.54
2022-08-16T22:30:48.958Z,23.51
2022-08-16T22:33:25.455Z,23.48
2022-08-16T22:35:58.593Z,23.44
2022-08-16T22:38:56.086Z,23.41
2022-08-16T22:41:17.921Z,23.34
2022-08-16T22:43:50.552Z,23.28
2022-08-16T22:46:19.863Z,23.21
2022-08-16T22:48:51.208Z,23.13
2022-08-16T22:51:21.946Z,23.08
2022-08-16T22:53:51.695Z,23.08
2022-08-16T22:56:22.279Z,23.07
2022-08-16T22:58:51.379Z,23.08
2022-08-16T23:01:22.705Z,23.07
2022-08-16T23:03:52.052Z,23.06
2022-08-16T23:06:21.507Z,23.02
2022-08-16T23:08:51.072Z,23.00
2022-08-16T23:11:23.918Z,23.02
2022-08-16T23:13:57.655Z,23.03
2022-08-16T23:19:17.696Z,23.09
2022-08-16T23:21:48.419Z,23.09
2022-08-16T23:24:20.853Z,23.08
2022-08-16T23:26:49.886Z,23.07
2022-08-16T23:29:26.301Z,23.07
2022-08-16T23:31:59.824Z,23.08
2022-08-16T23:34:29.184Z,23.10
2022-08-16T23:36:58.142Z,23.10
2022-08-16T23:39:27.354Z,23.11
2022-08-16T23:41:56.378Z,23.12
2022-08-16T23:44:57.361Z,23.11
2022-08-16T23:47:14.461Z,23.10
2022-08-16T23:50:01.062Z,23.08
2022-08-16T23:52:54.739Z,23.00
2022-08-16T23:55:20.676Z,22.99
2022-08-16T23:57:49.910Z,23.01
